sensor_id;sensor_type;location;lat;lon;timestamp;temperature;humidity
22456;DHT22;11395;53.204;6.502;2022-12-18T00:09:32;22.00;47.50
22456;DHT22;11395;53.204;6.502;2022-12-18T00:11:58;21.80;48.30
22456;DHT22;11395;53.204;6.502;2022-12-18T00:14:24;21.80;48.40
22456;DHT22;11395;53.204;6.502;2022-12-18T00:16:50;21.80;48.30
22456;DHT22;11395;53.204;6.502;2022-12-18T00:19:17;21.80;48.20
22456;DHT22;11395;53.204;6.502;2022-12-18T00:21:43;21.80;48.20
22456;DHT22;11395;53.204;6.502;2022-12-18T00:24:10;21.80;48.10
22456;DHT22;11395;53.204;6.502;2022-12-18T00:26:38;21.80;47.90
22456;DHT22;11395;53.204;6.502;2022-12-18T00:29:11;21.80;47.90
22456;DHT22;11395;53.204;6.502;2022-12-18T00:31:40;21.70;47.80
22456;DHT22;11395;53.204;6.502;2022-12-18T00:34:08;21.70;47.70
22456;DHT22;11395;53.204;6.502;2022-12-18T00:36:35;21.60;47.70
22456;DHT22;11395;53.204;6.502;2022-12-18T00:39:04;21.60;47.80
22456;DHT22;11395;53.204;6.502;2022-12-18T00:41:30;21.50;47.90
22456;DHT22;11395;53.204;6.502;2022-12-18T00:44:17;21.50;47.90
22456;DHT22;11395;53.204;6.502;2022-12-18T00:46:45;21.40;47.90
22456;DHT22;11395;53.204;6.502;2022-12-18T00:49:11;21.40;47.90
22456;DHT22;11395;53.204;6.502;2022-12-18T00:51:38;21.30;47.90
22456;DHT22;11395;53.204;6.502;2022-12-18T00:54:04;21.30;47.80
22456;DHT22;11395;53.204;6.502;2022-12-18T00:56:31;21.20;47.90
22456;DHT22;11395;53.204;6.502;2022-12-18T00:58:57;21.20;47.90
22456;DHT22;11395;53.204;6.502;2022-12-18T01:05:32;21.00;47.50
22456;DHT22;11395;53.204;6.502;2022-12-18T01:07:59;20.90;48.30
22456;DHT22;11395;53.204;6.502;2022-12-18T01:10:25;20.80;48.40
22456;DHT22;11395;53.204;6.502;2022-12-18T01:12:52;20.80;48.40
22456;DHT22;11395;53.204;6.502;2022-12-18T01:15:19;20.80;48.30
22456;DHT22;11395;53.204;6.502;2022-12-18T01:17:46;20.80;48.30
22456;DHT22;11395;53.204;6.502;2022-12-18T01:20:12;20.70;48.30
22456;DHT22;11395;53.204;6.502;2022-12-18T01:22:39;20.70;48.30
22456;DHT22;11395;53.204;6.502;2022-12-18T01:25:07;20.70;48.40
22456;DHT22;11395;53.204;6.502;2022-12-18T01:27:34;20.60;48.40
22456;DHT22;11395;53.204;6.502;2022-12-18T01:30:00;20.60;48.40
22456;DHT22;11395;53.204;6.502;2022-12-18T01:32:30;20.60;48.50
22456;DHT22;11395;53.204;6.502;2022-12-18T01:34:56;20.50;48.50
22456;DHT22;11395;53.204;6.502;2022-12-18T01:37:22;20.50;48.60
22456;DHT22;11395;53.204;6.502;2022-12-18T01:39:49;20.50;48.60
22456;DHT22;11395;53.204;6.502;2022-12-18T01:42:16;20.40;48.70
22456;DHT22;11395;53.204;6.502;2022-12-18T01:44:58;20.40;48.70
22456;DHT22;11395;53.204;6.502;2022-12-18T01:49:55;20.30;48.80
22456;DHT22;11395;53.204;6.502;2022-12-18T01:52:26;20.30;48.80
22456;DHT22;11395;53.204;6.502;2022-12-18T01:54:54;20.20;48.80
22456;DHT22;11395;53.204;6.502;2022-12-18T01:57:22;20.20;48.90
22456;DHT22;11395;53.204;6.502;2022-12-18T01:59:51;20.10;48.90
22456;DHT22;11395;53.204;6.502;2022-12-18T02:09:50;19.70;48.90
22456;DHT22;11395;53.204;6.502;2022-12-18T02:12:23;19.60;50.40
22456;DHT22;11395;53.204;6.502;2022-12-18T02:23:22;19.60;49.50
22456;DHT22;11395;53.204;6.502;2022-12-18T02:28:51;19.60;49.30
22456;DHT22;11395;53.204;6.502;2022-12-18T02:31:27;19.60;49.30
22456;DHT22;11395;53.204;6.502;2022-12-18T02:33:56;19.60;49.20
22456;DHT22;11395;53.204;6.502;2022-12-18T02:36:25;19.60;49.20
22456;DHT22;11395;53.204;6.502;2022-12-18T02:38:55;19.60;49.20
22456;DHT22;11395;53.204;6.502;2022-12-18T02:41:22;19.60;49.10
22456;DHT22;11395;53.204;6.502;2022-12-18T02:44:00;19.50;49.10
22456;DHT22;11395;53.204;6.502;2022-12-18T02:46:30;19.50;49.00
22456;DHT22;11395;53.204;6.502;2022-12-18T02:49:13;19.50;49.00
22456;DHT22;11395;53.204;6.502;2022-12-18T02:54:26;19.50;48.90
22456;DHT22;11395;53.204;6.502;2022-12-18T02:57:06;19.50;48.80
22456;DHT22;11395;53.204;6.502;2022-12-18T02:59:47;19.40;48.90
22456;DHT22;11395;53.204;6.502;2022-12-18T03:06:45;19.30;48.50
22456;DHT22;11395;53.204;6.502;2022-12-18T03:09:35;19.20;49.30
22456;DHT22;11395;53.204;6.502;2022-12-18T03:12:28;19.10;49.40
22456;DHT22;11395;53.204;6.502;2022-12-18T03:15:04;19.20;49.30
22456;DHT22;11395;53.204;6.502;2022-12-18T03:17:35;19.30;49.20
22456;DHT22;11395;53.204;6.502;2022-12-18T03:20:10;19.30;49.20
22456;DHT22;11395;53.204;6.502;2022-12-18T03:22:38;19.40;49.10
22456;DHT22;11395;53.204;6.502;2022-12-18T03:25:10;19.50;49.10
22456;DHT22;11395;53.204;6.502;2022-12-18T03:27:42;19.50;49.00
22456;DHT22;11395;53.204;6.502;2022-12-18T03:30:13;19.60;49.00
22456;DHT22;11395;53.204;6.502;2022-12-18T03:33:09;19.60;48.90
22456;DHT22;11395;53.204;6.502;2022-12-18T03:35:42;19.60;48.80
22456;DHT22;11395;53.204;6.502;2022-12-18T03:38:11;19.70;48.80
22456;DHT22;11395;53.204;6.502;2022-12-18T03:45:56;19.70;48.60
22456;DHT22;11395;53.204;6.502;2022-12-18T03:48:31;19.70;48.60
22456;DHT22;11395;53.204;6.502;2022-12-18T03:51:07;19.70;48.50
22456;DHT22;11395;53.204;6.502;2022-12-18T03:54:09;19.70;48.50
22456;DHT22;11395;53.204;6.502;2022-12-18T03:56:36;19.70;48.50
22456;DHT22;11395;53.204;6.502;2022-12-18T03:59:04;19.60;48.40
22456;DHT22;11395;53.204;6.502;2022-12-18T04:01:35;19.60;48.50
22456;DHT22;11395;53.204;6.502;2022-12-18T04:04:05;19.60;48.50
22456;DHT22;11395;53.204;6.502;2022-12-18T04:06:34;19.60;48.70
22456;DHT22;11395;53.204;6.502;2022-12-18T04:09:02;19.60;48.60
22456;DHT22;11395;53.204;6.502;2022-12-18T04:11:30;19.70;48.60
22456;DHT22;11395;53.204;6.502;2022-12-18T04:13:57;19.70;48.70
22456;DHT22;11395;53.204;6.502;2022-12-18T04:16:27;19.70;48.60
22456;DHT22;11395;53.204;6.502;2022-12-18T04:18:56;19.80;48.70
22456;DHT22;11395;53.204;6.502;2022-12-18T04:21:24;19.90;48.80
22456;DHT22;11395;53.204;6.502;2022-12-18T04:23:52;19.90;48.60
22456;DHT22;11395;53.204;6.502;2022-12-18T04:26:21;20.00;48.60
22456;DHT22;11395;53.204;6.502;2022-12-18T04:28:58;20.10;48.50
22456;DHT22;11395;53.204;6.502;2022-12-18T04:31:25;20.20;48.30
22456;DHT22;11395;53.204;6.502;2022-12-18T04:33:52;20.30;48.30
22456;DHT22;11395;53.204;6.502;2022-12-18T04:36:18;20.40;48.20
22456;DHT22;11395;53.204;6.502;2022-12-18T04:38:45;20.50;48.10
22456;DHT22;11395;53.204;6.502;2022-12-18T04:41:14;20.60;47.90
22456;DHT22;11395;53.204;6.502;2022-12-18T04:43:43;20.70;47.90
22456;DHT22;11395;53.204;6.502;2022-12-18T04:46:09;20.80;47.90
22456;DHT22;11395;53.204;6.502;2022-12-18T04:48:36;20.90;47.70
22456;DHT22;11395;53.204;6.502;2022-12-18T04:51:03;21.00;47.60
22456;DHT22;11395;53.204;6.502;2022-12-18T04:53:29;21.10;47.70
22456;DHT22;11395;53.204;6.502;2022-12-18T04:56:06;21.10;47.60
22456;DHT22;11395;53.204;6.502;2022-12-18T04:58:34;21.20;47.50
22456;DHT22;11395;53.204;6.502;2022-12-18T05:01:01;21.20;47.40
22456;DHT22;11395;53.204;6.502;2022-12-18T05:03:29;21.30;47.30
22456;DHT22;11395;53.204;6.502;2022-12-18T05:05:55;21.30;47.20
22456;DHT22;11395;53.204;6.502;2022-12-18T05:08:22;21.40;47.20
22456;DHT22;11395;53.204;6.502;2022-12-18T05:10:48;21.40;47.20
22456;DHT22;11395;53.204;6.502;2022-12-18T05:13:14;21.40;47.10
22456;DHT22;11395;53.204;6.502;2022-12-18T05:15:40;21.50;47.10
22456;DHT22;11395;53.204;6.502;2022-12-18T05:18:08;21.50;47.00
22456;DHT22;11395;53.204;6.502;2022-12-18T05:20:34;21.60;47.00
22456;DHT22;11395;53.204;6.502;2022-12-18T05:23:00;21.60;46.90
22456;DHT22;11395;53.204;6.502;2022-12-18T05:25:26;21.70;46.90
22456;DHT22;11395;53.204;6.502;2022-12-18T05:27:52;21.70;46.80
22456;DHT22;11395;53.204;6.502;2022-12-18T05:30:19;21.80;46.70
22456;DHT22;11395;53.204;6.502;2022-12-18T05:32:45;21.90;46.70
22456;DHT22;11395;53.204;6.502;2022-12-18T05:35:11;22.00;46.60
22456;DHT22;11395;53.204;6.502;2022-12-18T05:37:37;22.20;46.40
22456;DHT22;11395;53.204;6.502;2022-12-18T05:40:04;22.30;46.30
22456;DHT22;11395;53.204;6.502;2022-12-18T05:42:31;22.40;46.10
22456;DHT22;11395;53.204;6.502;2022-12-18T05:44:57;22.50;46.00
22456;DHT22;11395;53.204;6.502;2022-12-18T05:47:23;22.60;46.00
22456;DHT22;11395;53.204;6.502;2022-12-18T05:49:49;22.80;46.00
22456;DHT22;11395;53.204;6.502;2022-12-18T05:52:15;22.80;46.00
22456;DHT22;11395;53.204;6.502;2022-12-18T05:54:42;23.00;45.90
22456;DHT22;11395;53.204;6.502;2022-12-18T05:57:08;23.10;46.00
22456;DHT22;11395;53.204;6.502;2022-12-18T05:59:34;23.20;45.90
22456;DHT22;11395;53.204;6.502;2022-12-18T06:02:00;23.30;45.80
22456;DHT22;11395;53.204;6.502;2022-12-18T06:04:27;23.30;45.80
22456;DHT22;11395;53.204;6.502;2022-12-18T06:06:54;23.40;45.80
22456;DHT22;11395;53.204;6.502;2022-12-18T06:09:20;23.50;45.70
22456;DHT22;11395;53.204;6.502;2022-12-18T06:11:47;23.60;45.60
22456;DHT22;11395;53.204;6.502;2022-12-18T06:14:13;23.60;45.30
22456;DHT22;11395;53.204;6.502;2022-12-18T06:16:39;23.70;45.20
22456;DHT22;11395;53.204;6.502;2022-12-18T06:19:05;23.70;45.80
22456;DHT22;11395;53.204;6.502;2022-12-18T06:21:32;23.70;45.10
22456;DHT22;11395;53.204;6.502;2022-12-18T06:23:59;23.70;45.00
22456;DHT22;11395;53.204;6.502;2022-12-18T06:26:25;23.70;45.00
22456;DHT22;11395;53.204;6.502;2022-12-18T06:28:51;23.80;45.00
22456;DHT22;11395;53.204;6.502;2022-12-18T06:31:18;23.70;44.90
22456;DHT22;11395;53.204;6.502;2022-12-18T06:33:44;23.70;44.90
22456;DHT22;11395;53.204;6.502;2022-12-18T06:36:12;23.70;44.80
22456;DHT22;11395;53.204;6.502;2022-12-18T06:38:41;23.70;44.70
22456;DHT22;11395;53.204;6.502;2022-12-18T06:41:15;23.60;44.70
22456;DHT22;11395;53.204;6.502;2022-12-18T06:43:42;23.60;44.70
22456;DHT22;11395;53.204;6.502;2022-12-18T06:46:08;23.60;44.70
22456;DHT22;11395;53.204;6.502;2022-12-18T06:48:35;23.60;44.70
22456;DHT22;11395;53.204;6.502;2022-12-18T06:51:01;23.60;44.60
22456;DHT22;11395;53.204;6.502;2022-12-18T06:53:28;23.60;44.80
22456;DHT22;11395;53.204;6.502;2022-12-18T06:56:00;23.60;44.60
22456;DHT22;11395;53.204;6.502;2022-12-18T06:58:27;23.60;44.70
22456;DHT22;11395;53.204;6.502;2022-12-18T07:00:53;23.60;44.80
22456;DHT22;11395;53.204;6.502;2022-12-18T07:03:20;23.60;44.70
22456;DHT22;11395;53.204;6.502;2022-12-18T07:05:46;23.70;44.70
22456;DHT22;11395;53.204;6.502;2022-12-18T07:08:12;23.70;44.70
22456;DHT22;11395;53.204;6.502;2022-12-18T07:10:42;23.80;44.70
22456;DHT22;11395;53.204;6.502;2022-12-18T07:13:09;23.80;44.50
22456;DHT22;11395;53.204;6.502;2022-12-18T07:15:35;23.80;44.60
22456;DHT22;11395;53.204;6.502;2022-12-18T07:18:02;23.80;44.40
22456;DHT22;11395;53.204;6.502;2022-12-18T07:20:28;23.90;44.50
22456;DHT22;11395;53.204;6.502;2022-12-18T07:22:54;23.90;44.30
22456;DHT22;11395;53.204;6.502;2022-12-18T07:25:21;23.90;44.20
22456;DHT22;11395;53.204;6.502;2022-12-18T07:27:47;23.90;44.30
22456;DHT22;11395;53.204;6.502;2022-12-18T07:30:13;23.90;44.20
22456;DHT22;11395;53.204;6.502;2022-12-18T07:32:39;23.90;44.00
22456;DHT22;11395;53.204;6.502;2022-12-18T07:35:06;23.90;44.10
22456;DHT22;11395;53.204;6.502;2022-12-18T07:37:32;23.80;44.00
22456;DHT22;11395;53.204;6.502;2022-12-18T07:39:58;23.80;44.10
22456;DHT22;11395;53.204;6.502;2022-12-18T07:42:24;23.70;43.90
22456;DHT22;11395;53.204;6.502;2022-12-18T07:44:57;23.70;44.00
22456;DHT22;11395;53.204;6.502;2022-12-18T07:47:23;23.70;44.10
22456;DHT22;11395;53.204;6.502;2022-12-18T07:49:49;23.60;44.40
22456;DHT22;11395;53.204;6.502;2022-12-18T07:52:16;23.60;44.40
22456;DHT22;11395;53.204;6.502;2022-12-18T07:54:42;23.60;44.40
22456;DHT22;11395;53.204;6.502;2022-12-18T07:57:09;23.60;44.50
22456;DHT22;11395;53.204;6.502;2022-12-18T07:59:35;23.60;44.50
22456;DHT22;11395;53.204;6.502;2022-12-18T08:02:01;23.60;44.60
22456;DHT22;11395;53.204;6.502;2022-12-18T08:04:27;23.60;44.40
22456;DHT22;11395;53.204;6.502;2022-12-18T08:06:54;23.60;44.30
22456;DHT22;11395;53.204;6.502;2022-12-18T08:09:20;23.70;44.40
22456;DHT22;11395;53.204;6.502;2022-12-18T08:11:46;23.70;44.40
22456;DHT22;11395;53.204;6.502;2022-12-18T08:14:12;23.70;44.40
22456;DHT22;11395;53.204;6.502;2022-12-18T08:16:39;23.80;44.30
22456;DHT22;11395;53.204;6.502;2022-12-18T08:19:05;23.80;44.30
22456;DHT22;11395;53.204;6.502;2022-12-18T08:21:32;23.80;44.30
22456;DHT22;11395;53.204;6.502;2022-12-18T08:24:00;23.80;44.30
22456;DHT22;11395;53.204;6.502;2022-12-18T08:26:29;23.80;44.40
22456;DHT22;11395;53.204;6.502;2022-12-18T08:28:56;23.80;44.40
22456;DHT22;11395;53.204;6.502;2022-12-18T08:31:24;23.80;44.50
22456;DHT22;11395;53.204;6.502;2022-12-18T08:33:52;23.80;44.40
22456;DHT22;11395;53.204;6.502;2022-12-18T08:36:19;23.80;44.40
22456;DHT22;11395;53.204;6.502;2022-12-18T08:38:46;23.80;44.40
22456;DHT22;11395;53.204;6.502;2022-12-18T08:41:14;23.80;44.40
22456;DHT22;11395;53.204;6.502;2022-12-18T08:43:41;23.80;44.30
22456;DHT22;11395;53.204;6.502;2022-12-18T08:46:27;23.70;44.30
22456;DHT22;11395;53.204;6.502;2022-12-18T08:48:56;23.70;44.60
22456;DHT22;11395;53.204;6.502;2022-12-18T08:51:23;23.70;44.60
22456;DHT22;11395;53.204;6.502;2022-12-18T08:53:49;23.70;44.50
22456;DHT22;11395;53.204;6.502;2022-12-18T08:56:15;23.70;44.80
22456;DHT22;11395;53.204;6.502;2022-12-18T08:58:42;23.70;45.00
22456;DHT22;11395;53.204;6.502;2022-12-18T09:01:09;23.70;45.20
22456;DHT22;11395;53.204;6.502;2022-12-18T09:03:37;23.80;45.30
22456;DHT22;11395;53.204;6.502;2022-12-18T09:06:04;23.80;45.30
22456;DHT22;11395;53.204;6.502;2022-12-18T09:08:30;23.90;45.30
22456;DHT22;11395;53.204;6.502;2022-12-18T09:11:01;23.90;45.20
22456;DHT22;11395;53.204;6.502;2022-12-18T09:13:28;24.00;45.30
22456;DHT22;11395;53.204;6.502;2022-12-18T09:15:54;24.10;45.40
22456;DHT22;11395;53.204;6.502;2022-12-18T09:18:22;24.10;44.90
22456;DHT22;11395;53.204;6.502;2022-12-18T09:20:49;24.20;44.80
22456;DHT22;11395;53.204;6.502;2022-12-18T09:23:19;24.20;45.10
22456;DHT22;11395;53.204;6.502;2022-12-18T09:25:46;24.20;45.00
22456;DHT22;11395;53.204;6.502;2022-12-18T09:28:14;24.20;45.00
22456;DHT22;11395;53.204;6.502;2022-12-18T09:30:43;24.20;44.90
22456;DHT22;11395;53.204;6.502;2022-12-18T09:33:10;24.20;44.90
22456;DHT22;11395;53.204;6.502;2022-12-18T09:35:37;24.20;44.80
22456;DHT22;11395;53.204;6.502;2022-12-18T09:38:05;24.20;44.80
22456;DHT22;11395;53.204;6.502;2022-12-18T09:40:36;24.10;44.80
22456;DHT22;11395;53.204;6.502;2022-12-18T09:43:06;24.10;44.80
22456;DHT22;11395;53.204;6.502;2022-12-18T09:45:44;24.10;44.80
22456;DHT22;11395;53.204;6.502;2022-12-18T09:48:30;24.00;44.70
22456;DHT22;11395;53.204;6.502;2022-12-18T09:51:02;24.00;44.80
22456;DHT22;11395;53.204;6.502;2022-12-18T09:53:33;23.90;44.80
22456;DHT22;11395;53.204;6.502;2022-12-18T09:56:03;23.90;44.90
22456;DHT22;11395;53.204;6.502;2022-12-18T09:59:00;23.90;44.90
22456;DHT22;11395;53.204;6.502;2022-12-18T10:01:27;23.80;45.00
22456;DHT22;11395;53.204;6.502;2022-12-18T10:03:55;23.80;45.00
22456;DHT22;11395;53.204;6.502;2022-12-18T10:09:18;23.80;45.10
22456;DHT22;11395;53.204;6.502;2022-12-18T10:22:38;24.10;45.30
22456;DHT22;11395;53.204;6.502;2022-12-18T10:27:58;24.20;45.10
22456;DHT22;11395;53.204;6.502;2022-12-18T10:30:27;24.20;45.10
22456;DHT22;11395;53.204;6.502;2022-12-18T10:32:53;24.20;44.80
22456;DHT22;11395;53.204;6.502;2022-12-18T10:35:25;24.20;44.90
22456;DHT22;11395;53.204;6.502;2022-12-18T10:40:32;24.20;44.80
22456;DHT22;11395;53.204;6.502;2022-12-18T10:43:14;24.20;44.80
22456;DHT22;11395;53.204;6.502;2022-12-18T10:45:41;24.20;44.80
22456;DHT22;11395;53.204;6.502;2022-12-18T10:48:21;24.20;44.80
22456;DHT22;11395;53.204;6.502;2022-12-18T10:50:49;24.20;44.80
22456;DHT22;11395;53.204;6.502;2022-12-18T10:53:25;24.10;44.70
22456;DHT22;11395;53.204;6.502;2022-12-18T10:55:54;24.10;44.70
22456;DHT22;11395;53.204;6.502;2022-12-18T10:58:25;24.10;44.70
22456;DHT22;11395;53.204;6.502;2022-12-18T11:01:09;24.00;44.70
22456;DHT22;11395;53.204;6.502;2022-12-18T11:03:45;24.00;44.70
22456;DHT22;11395;53.204;6.502;2022-12-18T11:06:14;23.90;44.70
22456;DHT22;11395;53.204;6.502;2022-12-18T11:08:46;23.90;44.70
22456;DHT22;11395;53.204;6.502;2022-12-18T11:11:23;23.80;44.80
22456;DHT22;11395;53.204;6.502;2022-12-18T11:14:14;23.80;44.80
22456;DHT22;11395;53.204;6.502;2022-12-18T11:16:46;23.80;44.90
22456;DHT22;11395;53.204;6.502;2022-12-18T11:21:50;23.80;45.10
22456;DHT22;11395;53.204;6.502;2022-12-18T11:24:27;23.80;45.10
22456;DHT22;11395;53.204;6.502;2022-12-18T11:26:57;23.90;45.20
22456;DHT22;11395;53.204;6.502;2022-12-18T11:29:38;23.90;45.10
22456;DHT22;11395;53.204;6.502;2022-12-18T11:32:43;24.00;45.20
22456;DHT22;11395;53.204;6.502;2022-12-18T11:35:32;24.00;45.20
22456;DHT22;11395;53.204;6.502;2022-12-18T11:38:23;24.00;45.10
22456;DHT22;11395;53.204;6.502;2022-12-18T11:43:31;24.10;45.00
22456;DHT22;11395;53.204;6.502;2022-12-18T11:46:24;24.10;44.90
22456;DHT22;11395;53.204;6.502;2022-12-18T11:48:57;24.10;44.80
22456;DHT22;11395;53.204;6.502;2022-12-18T11:51:37;24.10;44.80
22456;DHT22;11395;53.204;6.502;2022-12-18T11:54:14;24.10;44.70
22456;DHT22;11395;53.204;6.502;2022-12-18T11:56:54;24.10;44.70
22456;DHT22;11395;53.204;6.502;2022-12-18T12:03:26;24.00;44.60
22456;DHT22;11395;53.204;6.502;2022-12-18T12:11:07;23.90;44.60
22456;DHT22;11395;53.204;6.502;2022-12-18T12:37:23;23.80;45.10
22456;DHT22;11395;53.204;6.502;2022-12-18T12:39:53;23.90;45.20
22456;DHT22;11395;53.204;6.502;2022-12-18T12:42:31;23.90;45.20
22456;DHT22;11395;53.204;6.502;2022-12-18T12:45:31;24.00;45.20
22456;DHT22;11395;53.204;6.502;2022-12-18T12:48:02;24.00;45.10
22456;DHT22;11395;53.204;6.502;2022-12-18T12:50:33;24.00;45.00
22456;DHT22;11395;53.204;6.502;2022-12-18T12:53:01;24.10;45.00
22456;DHT22;11395;53.204;6.502;2022-12-18T12:55:32;24.10;45.00
22456;DHT22;11395;53.204;6.502;2022-12-18T12:58:36;24.10;44.90
22456;DHT22;11395;53.204;6.502;2022-12-18T13:01:24;24.10;44.80
22456;DHT22;11395;53.204;6.502;2022-12-18T13:06:54;24.00;44.70
22456;DHT22;11395;53.204;6.502;2022-12-18T13:09:23;24.00;44.70
22456;DHT22;11395;53.204;6.502;2022-12-18T13:11:50;24.00;44.70
22456;DHT22;11395;53.204;6.502;2022-12-18T13:14:39;23.90;44.60
22456;DHT22;11395;53.204;6.502;2022-12-18T13:19:52;23.80;44.60
22456;DHT22;11395;53.204;6.502;2022-12-18T13:22:46;23.80;44.60
22456;DHT22;11395;53.204;6.502;2022-12-18T13:25:34;23.80;44.70
22456;DHT22;11395;53.204;6.502;2022-12-18T13:30:56;23.70;44.70
22456;DHT22;11395;53.204;6.502;2022-12-18T13:36:15;23.70;44.80
22456;DHT22;11395;53.204;6.502;2022-12-18T13:38:43;23.70;45.00
22456;DHT22;11395;53.204;6.502;2022-12-18T13:41:23;23.70;45.00
22456;DHT22;11395;53.204;6.502;2022-12-18T13:43:54;23.80;45.00
22456;DHT22;11395;53.204;6.502;2022-12-18T13:46:30;23.80;45.00
22456;DHT22;11395;53.204;6.502;2022-12-18T13:51:54;23.90;44.90
22456;DHT22;11395;53.204;6.502;2022-12-18T13:54:34;24.00;44.90
22456;DHT22;11395;53.204;6.502;2022-12-18T13:57:02;24.10;44.80
22456;DHT22;11395;53.204;6.502;2022-12-18T13:59:39;24.10;44.70
22456;DHT22;11395;53.204;6.502;2022-12-18T14:02:18;24.20;44.70
22456;DHT22;11395;53.204;6.502;2022-12-18T14:04:48;24.20;44.60
22456;DHT22;11395;53.204;6.502;2022-12-18T14:07:20;24.20;44.50
22456;DHT22;11395;53.204;6.502;2022-12-18T14:09:50;24.20;44.40
22456;DHT22;11395;53.204;6.502;2022-12-18T14:12:21;24.20;44.40
22456;DHT22;11395;53.204;6.502;2022-12-18T14:20:50;24.20;44.20
22456;DHT22;11395;53.204;6.502;2022-12-18T14:25:55;24.20;44.40
22456;DHT22;11395;53.204;6.502;2022-12-18T14:28:22;24.20;44.60
22456;DHT22;11395;53.204;6.502;2022-12-18T14:30:48;24.10;44.70
22456;DHT22;11395;53.204;6.502;2022-12-18T14:33:18;24.10;44.80
22456;DHT22;11395;53.204;6.502;2022-12-18T14:36:02;24.10;44.70
22456;DHT22;11395;53.204;6.502;2022-12-18T14:38:39;24.10;44.60
22456;DHT22;11395;53.204;6.502;2022-12-18T14:41:16;24.10;44.70
22456;DHT22;11395;53.204;6.502;2022-12-18T14:43:45;24.10;45.20
22456;DHT22;11395;53.204;6.502;2022-12-18T14:46:44;24.00;45.30
22456;DHT22;11395;53.204;6.502;2022-12-18T14:49:32;24.00;45.50
22456;DHT22;11395;53.204;6.502;2022-12-18T14:52:01;24.00;45.50
22456;DHT22;11395;53.204;6.502;2022-12-18T14:54:29;24.00;45.40
22456;DHT22;11395;53.204;6.502;2022-12-18T14:59:26;24.10;45.40
22456;DHT22;11395;53.204;6.502;2022-12-18T15:04:36;24.20;45.30
22456;DHT22;11395;53.204;6.502;2022-12-18T15:07:14;24.20;45.30
22456;DHT22;11395;53.204;6.502;2022-12-18T15:09:46;24.20;45.20
22456;DHT22;11395;53.204;6.502;2022-12-18T15:12:43;24.30;45.20
22456;DHT22;11395;53.204;6.502;2022-12-18T15:20:58;24.40;45.10
22456;DHT22;11395;53.204;6.502;2022-12-18T15:23:50;24.40;45.00
22456;DHT22;11395;53.204;6.502;2022-12-18T15:26:19;24.40;44.90
22456;DHT22;11395;53.204;6.502;2022-12-18T15:28:50;24.40;44.90
22456;DHT22;11395;53.204;6.502;2022-12-18T15:33:47;24.40;44.60
22456;DHT22;11395;53.204;6.502;2022-12-18T15:36:25;24.40;44.70
22456;DHT22;11395;53.204;6.502;2022-12-18T15:38:54;24.40;44.60
22456;DHT22;11395;53.204;6.502;2022-12-18T15:41:21;24.30;44.50
22456;DHT22;11395;53.204;6.502;2022-12-18T15:43:49;24.30;44.30
22456;DHT22;11395;53.204;6.502;2022-12-18T15:46:18;24.30;44.30
22456;DHT22;11395;53.204;6.502;2022-12-18T15:48:54;24.20;44.40
22456;DHT22;11395;53.204;6.502;2022-12-18T15:51:44;24.20;44.30
22456;DHT22;11395;53.204;6.502;2022-12-18T15:54:12;24.20;44.40
22456;DHT22;11395;53.204;6.502;2022-12-18T15:56:40;24.20;44.20
22456;DHT22;11395;53.204;6.502;2022-12-18T15:59:25;24.10;44.20
22456;DHT22;11395;53.204;6.502;2022-12-18T16:01:51;24.00;44.30
22456;DHT22;11395;53.204;6.502;2022-12-18T16:04:22;24.00;44.40
22456;DHT22;11395;53.204;6.502;2022-12-18T16:06:49;24.00;44.30
22456;DHT22;11395;53.204;6.502;2022-12-18T16:09:16;24.00;44.40
22456;DHT22;11395;53.204;6.502;2022-12-18T16:11:43;23.90;44.90
22456;DHT22;11395;53.204;6.502;2022-12-18T16:14:26;24.00;44.50
22456;DHT22;11395;53.204;6.502;2022-12-18T16:16:55;24.00;44.60
22456;DHT22;11395;53.204;6.502;2022-12-18T16:19:22;24.10;44.60
22456;DHT22;11395;53.204;6.502;2022-12-18T16:21:50;24.20;44.50
22456;DHT22;11395;53.204;6.502;2022-12-18T16:24:22;24.20;44.20
22456;DHT22;11395;53.204;6.502;2022-12-18T16:26:49;24.20;44.20
22456;DHT22;11395;53.204;6.502;2022-12-18T16:29:18;24.30;44.00
22456;DHT22;11395;53.204;6.502;2022-12-18T16:31:45;24.30;43.80
22456;DHT22;11395;53.204;6.502;2022-12-18T16:36:49;24.30;43.80
22456;DHT22;11395;53.204;6.502;2022-12-18T16:39:16;24.20;43.60
22456;DHT22;11395;53.204;6.502;2022-12-18T16:41:43;24.30;43.60
22456;DHT22;11395;53.204;6.502;2022-12-18T16:44:09;24.20;43.50
22456;DHT22;11395;53.204;6.502;2022-12-18T16:46:37;24.20;43.60
22456;DHT22;11395;53.204;6.502;2022-12-18T16:49:03;24.20;43.50
22456;DHT22;11395;53.204;6.502;2022-12-18T16:51:32;24.10;43.40
22456;DHT22;11395;53.204;6.502;2022-12-18T16:53:59;24.10;43.50
22456;DHT22;11395;53.204;6.502;2022-12-18T16:56:26;24.10;43.40
22456;DHT22;11395;53.204;6.502;2022-12-18T16:58:54;24.00;43.10
22456;DHT22;11395;53.204;6.502;2022-12-18T17:01:21;23.90;43.60
22456;DHT22;11395;53.204;6.502;2022-12-18T17:03:54;23.90;43.60
22456;DHT22;11395;53.204;6.502;2022-12-18T17:06:22;23.90;43.90
22456;DHT22;11395;53.204;6.502;2022-12-18T17:08:55;23.90;43.80
22456;DHT22;11395;53.204;6.502;2022-12-18T17:11:23;23.80;44.00
22456;DHT22;11395;53.204;6.502;2022-12-18T17:13:50;23.90;44.00
22456;DHT22;11395;53.204;6.502;2022-12-18T17:16:17;23.90;44.10
22456;DHT22;11395;53.204;6.502;2022-12-18T17:18:43;23.90;44.30
22456;DHT22;11395;53.204;6.502;2022-12-18T17:21:11;23.90;44.40
22456;DHT22;11395;53.204;6.502;2022-12-18T17:23:40;24.00;44.50
22456;DHT22;11395;53.204;6.502;2022-12-18T17:26:07;24.00;44.60
22456;DHT22;11395;53.204;6.502;2022-12-18T17:28:36;24.00;44.60
22456;DHT22;11395;53.204;6.502;2022-12-18T17:31:23;24.10;44.80
22456;DHT22;11395;53.204;6.502;2022-12-18T17:33:50;24.10;44.80
22456;DHT22;11395;53.204;6.502;2022-12-18T17:36:17;24.10;44.80
22456;DHT22;11395;53.204;6.502;2022-12-18T17:38:53;24.10;44.80
22456;DHT22;11395;53.204;6.502;2022-12-18T17:41:20;24.10;44.80
22456;DHT22;11395;53.204;6.502;2022-12-18T17:43:58;24.10;44.80
22456;DHT22;11395;53.204;6.502;2022-12-18T17:46:26;24.10;44.70
22456;DHT22;11395;53.204;6.502;2022-12-18T17:48:59;24.10;44.80
22456;DHT22;11395;53.204;6.502;2022-12-18T17:51:27;24.10;44.70
22456;DHT22;11395;53.204;6.502;2022-12-18T17:53:53;24.10;44.80
22456;DHT22;11395;53.204;6.502;2022-12-18T17:56:21;24.10;44.80
22456;DHT22;11395;53.204;6.502;2022-12-18T17:58:48;24.00;44.80
22456;DHT22;11395;53.204;6.502;2022-12-18T18:01:18;23.90;44.80
22456;DHT22;11395;53.204;6.502;2022-12-18T18:03:45;23.80;44.80
22456;DHT22;11395;53.204;6.502;2022-12-18T18:06:12;23.80;44.90
22456;DHT22;11395;53.204;6.502;2022-12-18T18:08:39;23.70;45.10
22456;DHT22;11395;53.204;6.502;2022-12-18T18:11:11;23.70;45.20
22456;DHT22;11395;53.204;6.502;2022-12-18T18:13:57;23.60;45.10